TVF3209 GMAD-LFLL
Flight info
| Callsign | TVF3209 |
|---|---|
| Flight time | 2h 48m |
| Altitude | 34000 |
| Route | MOGBA UH300 ESS UN871 ADUBI N871 VJF/N0455F360 N871 TOPTU DCT TOU/N0450F340 DCT GAI/N0448F300 DCT MEN/N0419F260 DCT NINUN G53 MEZIN |
| Aircraft | B738/M-SDE2E3FGHIRWXY/LB1 |
Departure
| Time | 2026-04-27 08:49 |
|---|---|
| Airport | Al Massira Airport (GMAD) |
Arrival
| Time | 2026-04-27 11:37 |
|---|---|
| Airport | Lyon Saint-Exupéry Airport (LFLL) |
| Time | Latitude | Longitude | Altitude | Speed | Heading |
|---|---|---|---|---|---|
| 2026-04-27 08:02 | 30.32907 | -9.41101 | 234 ft | 0 kts | 312° |
| 2026-04-27 08:37 | 30.32897 | -9.41089 | 236 ft | 4 kts | 311° |
| 2026-04-27 08:37 | 30.32883 | -9.41070 | 240 ft | 2 kts | 322° |
| 2026-04-27 08:38 | 30.32865 | -9.41059 | 240 ft | 2 kts | 346° |
| 2026-04-27 08:38 | 30.32847 | -9.41060 | 239 ft | 4 kts | 0° |
| 2026-04-27 08:38 | 30.32826 | -9.41058 | 239 ft | 4 kts | 346° |
| 2026-04-27 08:38 | 30.32802 | -9.41048 | 237 ft | 2 kts | 338° |
| 2026-04-27 08:39 | 30.32796 | -9.41046 | 237 ft | 0 kts | 338° |
| 2026-04-27 08:42 | 30.32805 | -9.41058 | 236 ft | 4 kts | 300° |
| 2026-04-27 08:43 | 30.32811 | -9.41111 | 233 ft | 9 kts | 273° |
| 2026-04-27 08:43 | 30.32814 | -9.41204 | 232 ft | 14 kts | 270° |
| 2026-04-27 08:43 | 30.32815 | -9.41327 | 230 ft | 17 kts | 272° |
| 2026-04-27 08:43 | 30.32819 | -9.41422 | 228 ft | 10 kts | 271° |
| 2026-04-27 08:44 | 30.32820 | -9.41508 | 227 ft | 12 kts | 271° |
| 2026-04-27 08:44 | 30.32822 | -9.41616 | 225 ft | 15 kts | 272° |
| 2026-04-27 08:44 | 30.32825 | -9.41745 | 223 ft | 17 kts | 271° |
| 2026-04-27 08:44 | 30.32829 | -9.41895 | 221 ft | 20 kts | 271° |
| 2026-04-27 08:45 | 30.32833 | -9.42039 | 218 ft | 15 kts | 272° |
| 2026-04-27 08:45 | 30.32834 | -9.42129 | 217 ft | 10 kts | 261° |
| 2026-04-27 08:45 | 30.32783 | -9.42182 | 218 ft | 12 kts | 192° |
| 2026-04-27 08:45 | 30.32698 | -9.42189 | 216 ft | 13 kts | 182° |
| 2026-04-27 08:46 | 30.32603 | -9.42192 | 216 ft | 14 kts | 181° |
| 2026-04-27 08:46 | 30.32522 | -9.42195 | 220 ft | 10 kts | 187° |
| 2026-04-27 08:46 | 30.32477 | -9.42256 | 214 ft | 12 kts | 269° |
| 2026-04-27 08:46 | 30.32482 | -9.42362 | 213 ft | 15 kts | 272° |
| 2026-04-27 08:47 | 30.32485 | -9.42489 | 211 ft | 17 kts | 272° |
| 2026-04-27 08:47 | 30.32489 | -9.42636 | 211 ft | 19 kts | 271° |
| 2026-04-27 08:47 | 30.32491 | -9.42780 | 215 ft | 10 kts | 271° |
| 2026-04-27 08:47 | 30.32482 | -9.42837 | 210 ft | 8 kts | 239° |
| 2026-04-27 08:48 | 30.32430 | -9.42862 | 206 ft | 9 kts | 180° |
| 2026-04-27 08:48 | 30.32368 | -9.42846 | 211 ft | 9 kts | 147° |
| 2026-04-27 08:48 | 30.32319 | -9.42798 | 207 ft | 10 kts | 134° |
| 2026-04-27 08:48 | 30.32300 | -9.42720 | 210 ft | 14 kts | 92° |
| 2026-04-27 08:49 | 30.32289 | -9.42338 | 217 ft | 82 kts | 91° |
| 2026-04-27 08:49 | 30.32269 | -9.41422 | 230 ft | 142 kts | 91° |
| 2026-04-27 08:49 | 30.32231 | -9.40089 | 353 ft | 183 kts | 92° |
| 2026-04-27 08:49 | 30.32175 | -9.38641 | 1201 ft | 174 kts | 93° |
| 2026-04-27 08:50 | 30.32099 | -9.37192 | 1827 ft | 190 kts | 94° |
| 2026-04-27 08:50 | 30.31780 | -9.35641 | 2215 ft | 211 kts | 118° |
| 2026-04-27 08:50 | 30.30764 | -9.34302 | 2405 ft | 232 kts | 145° |
| 2026-04-27 08:50 | 30.29315 | -9.33478 | 3039 ft | 234 kts | 163° |
| 2026-04-27 08:51 | 30.27631 | -9.33123 | 3145 ft | 266 kts | 181° |
| 2026-04-27 08:51 | 30.25789 | -9.33660 | 3655 ft | 278 kts | 208° |
| 2026-04-27 08:51 | 30.24323 | -9.35031 | 4641 ft | 277 kts | 229° |
| 2026-04-27 08:51 | 30.23436 | -9.37051 | 5246 ft | 290 kts | 258° |
| 2026-04-27 08:52 | 30.23398 | -9.39362 | 6196 ft | 287 kts | 274° |
| 2026-04-27 08:52 | 30.23601 | -9.41648 | 7002 ft | 288 kts | 274° |
| 2026-04-27 08:52 | 30.23793 | -9.43990 | 7591 ft | 296 kts | 273° |
| 2026-04-27 08:52 | 30.23949 | -9.46381 | 8297 ft | 300 kts | 272° |
| 2026-04-27 08:53 | 30.24075 | -9.48783 | 9132 ft | 299 kts | 271° |
| 2026-04-27 08:53 | 30.24179 | -9.51201 | 9846 ft | 304 kts | 271° |
| 2026-04-27 08:53 | 30.24271 | -9.53676 | 10325 ft | 316 kts | 270° |
| 2026-04-27 08:53 | 30.24360 | -9.56316 | 10485 ft | 339 kts | 270° |
| 2026-04-27 08:54 | 30.24450 | -9.59123 | 10662 ft | 360 kts | 270° |
| 2026-04-27 08:54 | 30.24542 | -9.62069 | 11058 ft | 371 kts | 271° |
| 2026-04-27 08:54 | 30.24635 | -9.65068 | 11699 ft | 374 kts | 271° |
| 2026-04-27 08:54 | 30.24728 | -9.68077 | 12415 ft | 375 kts | 271° |
| 2026-04-27 08:55 | 30.25214 | -9.71009 | 13038 ft | 381 kts | 293° |
| 2026-04-27 08:55 | 30.26749 | -9.73488 | 13706 ft | 383 kts | 319° |
| 2026-04-27 08:55 | 30.29048 | -9.75017 | 14306 ft | 385 kts | 341° |
| 2026-04-27 08:55 | 30.31589 | -9.76034 | 14870 ft | 389 kts | 339° |
| 2026-04-27 08:56 | 30.34118 | -9.77191 | 15385 ft | 393 kts | 342° |
| 2026-04-27 08:56 | 30.36823 | -9.77672 | 15902 ft | 396 kts | 3° |
| 2026-04-27 08:56 | 30.39568 | -9.77437 | 16524 ft | 397 kts | 6° |
| 2026-04-27 08:56 | 30.42334 | -9.77154 | 17054 ft | 401 kts | 6° |
| 2026-04-27 08:57 | 30.47957 | -9.76616 | 18111 ft | 409 kts | 5° |
| 2026-04-27 08:57 | 30.50803 | -9.76367 | 18595 ft | 412 kts | 5° |
| 2026-04-27 08:57 | 30.53670 | -9.76122 | 19076 ft | 415 kts | 5° |
| 2026-04-27 08:58 | 30.56559 | -9.75877 | 19553 ft | 418 kts | 5° |
| 2026-04-27 08:58 | 30.59470 | -9.75628 | 20020 ft | 421 kts | 5° |
| 2026-04-27 08:58 | 30.62403 | -9.75376 | 20480 ft | 424 kts | 5° |
| 2026-04-27 08:58 | 30.65359 | -9.75120 | 20931 ft | 427 kts | 5° |
| 2026-04-27 08:59 | 30.68332 | -9.74864 | 21382 ft | 430 kts | 5° |
| 2026-04-27 08:59 | 30.71328 | -9.74605 | 21814 ft | 433 kts | 5° |
| 2026-04-27 08:59 | 30.74343 | -9.74345 | 22233 ft | 436 kts | 4° |
| 2026-04-27 08:59 | 30.77383 | -9.74082 | 22662 ft | 439 kts | 4° |
| 2026-04-27 09:00 | 30.80438 | -9.73818 | 23083 ft | 442 kts | 4° |
| 2026-04-27 09:00 | 30.83471 | -9.73556 | 23494 ft | 445 kts | 4° |
| 2026-04-27 09:00 | 30.86567 | -9.73287 | 23805 ft | 448 kts | 4° |
| 2026-04-27 09:00 | 30.89678 | -9.73018 | 24148 ft | 450 kts | 4° |
| 2026-04-27 09:01 | 30.92807 | -9.72746 | 24505 ft | 452 kts | 4° |
| 2026-04-27 09:01 | 30.95958 | -9.72473 | 24832 ft | 455 kts | 4° |
| 2026-04-27 09:01 | 30.99088 | -9.72201 | 25143 ft | 457 kts | 4° |
| 2026-04-27 09:01 | 31.02304 | -9.71922 | 25462 ft | 460 kts | 4° |
| 2026-04-27 09:02 | 31.05497 | -9.71649 | 25773 ft | 462 kts | 4° |
| 2026-04-27 09:02 | 31.08717 | -9.71376 | 26074 ft | 464 kts | 4° |
| 2026-04-27 09:02 | 31.11948 | -9.71102 | 26375 ft | 467 kts | 4° |
| 2026-04-27 09:02 | 31.15193 | -9.70827 | 26669 ft | 469 kts | 4° |
| 2026-04-27 09:03 | 31.18452 | -9.70550 | 27013 ft | 470 kts | 4° |
| 2026-04-27 09:03 | 31.21717 | -9.70272 | 27322 ft | 471 kts | 4° |
| 2026-04-27 09:03 | 31.25001 | -9.69991 | 27580 ft | 474 kts | 4° |
| 2026-04-27 09:03 | 31.28302 | -9.69709 | 27829 ft | 477 kts | 4° |
| 2026-04-27 09:04 | 31.31617 | -9.69426 | 28082 ft | 479 kts | 4° |
| 2026-04-27 09:04 | 31.34948 | -9.69141 | 28354 ft | 481 kts | 5° |
| 2026-04-27 09:04 | 31.38265 | -9.68593 | 28590 ft | 483 kts | 14° |
| 2026-04-27 09:04 | 31.41475 | -9.67435 | 28840 ft | 484 kts | 22° |
| 2026-04-27 09:05 | 31.44506 | -9.65726 | 29096 ft | 484 kts | 32° |
| 2026-04-27 09:05 | 31.47365 | -9.63659 | 29495 ft | 482 kts | 33° |
| 2026-04-27 09:05 | 31.50194 | -9.61570 | 29885 ft | 481 kts | 33° |
| 2026-04-27 09:05 | 31.53023 | -9.59477 | 30174 ft | 481 kts | 33° |
| 2026-04-27 09:06 | 31.55861 | -9.57390 | 30423 ft | 481 kts | 33° |
| 2026-04-27 09:06 | 31.58701 | -9.55314 | 30713 ft | 481 kts | 33° |
| 2026-04-27 09:06 | 31.61543 | -9.53248 | 31008 ft | 480 kts | 33° |
| 2026-04-27 09:06 | 31.64344 | -9.51219 | 31268 ft | 480 kts | 33° |
| 2026-04-27 09:07 | 31.67185 | -9.49164 | 31520 ft | 480 kts | 33° |
| 2026-04-27 09:07 | 31.70028 | -9.47108 | 31784 ft | 480 kts | 33° |
| 2026-04-27 09:07 | 31.72872 | -9.45049 | 32021 ft | 480 kts | 33° |
| 2026-04-27 09:07 | 31.75723 | -9.42984 | 32206 ft | 482 kts | 33° |
| 2026-04-27 09:08 | 31.78575 | -9.40915 | 32459 ft | 482 kts | 33° |
| 2026-04-27 09:08 | 31.81420 | -9.38850 | 32761 ft | 480 kts | 33° |
| 2026-04-27 09:08 | 31.84262 | -9.36785 | 33039 ft | 480 kts | 33° |
| 2026-04-27 09:08 | 31.87103 | -9.34720 | 33275 ft | 480 kts | 33° |
| 2026-04-27 09:09 | 31.89939 | -9.32655 | 33487 ft | 480 kts | 33° |
| 2026-04-27 09:09 | 31.92783 | -9.30584 | 33730 ft | 480 kts | 33° |
| 2026-04-27 09:09 | 31.95620 | -9.28516 | 33935 ft | 480 kts | 33° |
| 2026-04-27 09:10 | 32.01334 | -9.24347 | 33925 ft | 482 kts | 33° |
| 2026-04-27 09:10 | 32.06997 | -9.20210 | 33916 ft | 476 kts | 33° |
| 2026-04-27 09:11 | 32.12604 | -9.16107 | 33920 ft | 472 kts | 33° |
| 2026-04-27 09:11 | 32.18177 | -9.12023 | 33930 ft | 472 kts | 33° |
| 2026-04-27 09:12 | 32.23790 | -9.07902 | 33912 ft | 479 kts | 33° |
| 2026-04-27 09:12 | 32.29482 | -9.03718 | 33936 ft | 485 kts | 33° |
| 2026-04-27 09:13 | 32.35217 | -8.99497 | 33923 ft | 483 kts | 33° |
| 2026-04-27 09:13 | 32.40863 | -8.95336 | 33923 ft | 475 kts | 33° |
| 2026-04-27 09:14 | 32.46445 | -8.91215 | 33935 ft | 476 kts | 33° |
| 2026-04-27 09:14 | 32.52062 | -8.87061 | 33927 ft | 476 kts | 33° |
| 2026-04-27 09:15 | 32.57688 | -8.82895 | 33927 ft | 477 kts | 33° |
| 2026-04-27 09:15 | 32.63314 | -8.78722 | 33927 ft | 477 kts | 33° |
| 2026-04-27 09:16 | 32.68951 | -8.74535 | 33932 ft | 478 kts | 33° |
| 2026-04-27 09:16 | 32.74592 | -8.70339 | 33913 ft | 478 kts | 33° |
| 2026-04-27 09:17 | 32.80239 | -8.66132 | 33927 ft | 478 kts | 33° |
| 2026-04-27 09:17 | 32.85881 | -8.61922 | 33929 ft | 479 kts | 33° |
| 2026-04-27 09:18 | 32.91521 | -8.57708 | 33926 ft | 479 kts | 33° |
| 2026-04-27 09:18 | 32.97167 | -8.53482 | 33926 ft | 479 kts | 33° |
| 2026-04-27 09:19 | 33.02810 | -8.49252 | 33922 ft | 479 kts | 33° |
| 2026-04-27 09:19 | 33.08446 | -8.45021 | 33924 ft | 479 kts | 33° |
| 2026-04-27 09:20 | 33.14078 | -8.40785 | 33915 ft | 478 kts | 33° |
| 2026-04-27 09:20 | 33.18747 | -8.37270 | 33912 ft | 478 kts | 33° |
| 2026-04-27 09:21 | 33.24375 | -8.33035 | 33889 ft | 478 kts | 33° |
| 2026-04-27 09:21 | 33.30920 | -8.28111 | 33904 ft | 477 kts | 33° |
| 2026-04-27 09:22 | 33.35637 | -8.24556 | 33910 ft | 477 kts | 33° |
| 2026-04-27 09:22 | 33.41220 | -8.20341 | 33910 ft | 478 kts | 33° |
| 2026-04-27 09:23 | 33.46844 | -8.16087 | 33893 ft | 478 kts | 32° |
| 2026-04-27 09:23 | 33.52469 | -8.11826 | 33890 ft | 478 kts | 33° |
| 2026-04-27 09:24 | 33.57674 | -8.07877 | 33893 ft | 478 kts | 33° |
| 2026-04-27 09:24 | 33.63301 | -8.03602 | 33882 ft | 478 kts | 33° |
| 2026-04-27 09:25 | 33.68510 | -7.99638 | 33884 ft | 478 kts | 33° |
| 2026-04-27 09:25 | 33.74127 | -7.95357 | 33890 ft | 478 kts | 33° |
| 2026-04-27 09:26 | 33.79746 | -7.91068 | 33890 ft | 478 kts | 33° |
| 2026-04-27 09:26 | 33.85356 | -7.86780 | 33890 ft | 478 kts | 33° |
| 2026-04-27 09:27 | 33.90964 | -7.82485 | 33901 ft | 478 kts | 33° |
| 2026-04-27 09:27 | 33.96567 | -7.78189 | 33901 ft | 477 kts | 33° |
| 2026-04-27 09:28 | 34.02167 | -7.73887 | 33909 ft | 477 kts | 33° |
| 2026-04-27 09:28 | 34.07762 | -7.69582 | 33906 ft | 477 kts | 33° |
| 2026-04-27 09:29 | 34.13358 | -7.65270 | 33909 ft | 477 kts | 33° |
| 2026-04-27 09:29 | 34.18956 | -7.60950 | 33910 ft | 477 kts | 33° |
| 2026-04-27 09:30 | 34.24506 | -7.56659 | 33910 ft | 477 kts | 32° |
| 2026-04-27 09:30 | 34.30095 | -7.52331 | 33911 ft | 477 kts | 32° |
| 2026-04-27 09:31 | 34.35683 | -7.47998 | 33914 ft | 477 kts | 33° |
| 2026-04-27 09:31 | 34.41278 | -7.43652 | 33913 ft | 478 kts | 33° |
| 2026-04-27 09:32 | 34.46870 | -7.39302 | 33913 ft | 478 kts | 33° |
| 2026-04-27 09:32 | 34.52471 | -7.34936 | 33918 ft | 478 kts | 32° |
| 2026-04-27 09:33 | 34.58070 | -7.30566 | 33914 ft | 479 kts | 33° |
| 2026-04-27 09:33 | 34.63666 | -7.26191 | 33915 ft | 479 kts | 33° |
| 2026-04-27 09:34 | 34.69270 | -7.21803 | 33904 ft | 479 kts | 32° |
| 2026-04-27 09:34 | 34.74869 | -7.17411 | 33916 ft | 479 kts | 32° |
| 2026-04-27 09:35 | 34.80467 | -7.13013 | 33932 ft | 479 kts | 32° |
| 2026-04-27 09:35 | 34.86032 | -7.08633 | 33923 ft | 479 kts | 32° |
| 2026-04-27 09:36 | 34.91631 | -7.04220 | 33918 ft | 479 kts | 32° |
| 2026-04-27 09:36 | 34.97222 | -6.99806 | 33923 ft | 479 kts | 32° |
| 2026-04-27 09:37 | 35.02809 | -6.95387 | 33923 ft | 478 kts | 32° |
| 2026-04-27 09:37 | 35.08389 | -6.90966 | 33931 ft | 478 kts | 32° |
| 2026-04-27 09:38 | 35.13967 | -6.86540 | 33927 ft | 478 kts | 32° |
| 2026-04-27 09:38 | 35.19536 | -6.82114 | 33918 ft | 477 kts | 32° |
| 2026-04-27 09:39 | 35.25095 | -6.77687 | 33923 ft | 476 kts | 32° |
| 2026-04-27 09:39 | 35.30641 | -6.73264 | 33928 ft | 476 kts | 32° |
| 2026-04-27 09:40 | 35.36200 | -6.68838 | 33917 ft | 476 kts | 32° |
| 2026-04-27 09:40 | 35.41804 | -6.64518 | 33925 ft | 476 kts | 31° |
| 2026-04-27 09:41 | 35.47423 | -6.60219 | 33930 ft | 476 kts | 31° |
| 2026-04-27 09:41 | 35.53040 | -6.55896 | 33933 ft | 477 kts | 31° |
| 2026-04-27 09:42 | 35.58655 | -6.51554 | 33935 ft | 477 kts | 32° |
| 2026-04-27 09:42 | 35.64288 | -6.47188 | 33930 ft | 478 kts | 32° |
| 2026-04-27 09:43 | 35.69888 | -6.42842 | 33930 ft | 480 kts | 32° |
| 2026-04-27 09:43 | 35.75543 | -6.38445 | 33920 ft | 481 kts | 32° |
| 2026-04-27 09:44 | 35.81200 | -6.34040 | 33941 ft | 482 kts | 32° |
| 2026-04-27 09:44 | 35.86846 | -6.29517 | 33956 ft | 486 kts | 34° |
| 2026-04-27 09:45 | 35.92383 | -6.24737 | 33986 ft | 486 kts | 35° |
| 2026-04-27 09:45 | 35.97889 | -6.19961 | 33982 ft | 481 kts | 34° |
| 2026-04-27 09:46 | 36.03368 | -6.15254 | 33977 ft | 478 kts | 34° |
| 2026-04-27 09:46 | 36.08814 | -6.10585 | 33963 ft | 476 kts | 34° |
| 2026-04-27 09:47 | 36.14262 | -6.05906 | 33977 ft | 479 kts | 36° |
| 2026-04-27 09:47 | 36.19742 | -6.01187 | 33983 ft | 480 kts | 36° |
| 2026-04-27 09:48 | 36.25091 | -5.96313 | 33976 ft | 476 kts | 44° |
| 2026-04-27 09:48 | 36.29757 | -5.90522 | 34012 ft | 473 kts | 47° |
| 2026-04-27 09:49 | 36.34315 | -5.84654 | 34010 ft | 471 kts | 48° |
| 2026-04-27 09:49 | 36.38884 | -5.78834 | 34005 ft | 469 kts | 48° |
| 2026-04-27 09:50 | 36.43455 | -5.73074 | 34010 ft | 467 kts | 47° |
| 2026-04-27 09:50 | 36.48008 | -5.67341 | 34010 ft | 466 kts | 47° |
| 2026-04-27 09:51 | 36.52572 | -5.61581 | 34024 ft | 470 kts | 48° |
| 2026-04-27 09:51 | 36.57173 | -5.55770 | 34041 ft | 473 kts | 47° |
| 2026-04-27 09:52 | 36.61767 | -5.49949 | 34035 ft | 475 kts | 49° |
| 2026-04-27 09:52 | 36.66391 | -5.44079 | 34045 ft | 472 kts | 46° |
| 2026-04-27 09:53 | 36.70972 | -5.38255 | 34033 ft | 468 kts | 47° |
| 2026-04-27 09:53 | 36.75511 | -5.32468 | 34041 ft | 466 kts | 46° |
| 2026-04-27 09:54 | 36.80057 | -5.26668 | 34048 ft | 470 kts | 47° |
| 2026-04-27 09:54 | 36.84643 | -5.20802 | 34039 ft | 475 kts | 47° |
| 2026-04-27 09:55 | 36.89264 | -5.14881 | 34063 ft | 477 kts | 46° |
| 2026-04-27 09:55 | 36.96189 | -5.05996 | 34048 ft | 474 kts | 46° |
| 2026-04-27 09:56 | 37.00769 | -5.00103 | 34056 ft | 471 kts | 46° |
| 2026-04-27 09:56 | 37.05548 | -4.94545 | 34053 ft | 468 kts | 35° |
| 2026-04-27 09:57 | 37.11269 | -4.90810 | 34077 ft | 464 kts | 21° |
| 2026-04-27 09:57 | 37.17260 | -4.87789 | 34064 ft | 464 kts | 21° |
| 2026-04-27 09:58 | 37.23239 | -4.84747 | 34064 ft | 464 kts | 21° |
| 2026-04-27 09:58 | 37.29195 | -4.81656 | 34061 ft | 463 kts | 22° |
| 2026-04-27 09:59 | 37.35153 | -4.78535 | 34063 ft | 463 kts | 22° |
| 2026-04-27 09:59 | 37.41100 | -4.75413 | 34067 ft | 463 kts | 21° |
| 2026-04-27 10:00 | 37.47056 | -4.72283 | 34069 ft | 464 kts | 21° |
| 2026-04-27 10:00 | 37.53015 | -4.69147 | 34070 ft | 464 kts | 21° |
| 2026-04-27 10:01 | 37.58974 | -4.66006 | 34069 ft | 464 kts | 21° |
| 2026-04-27 10:01 | 37.64947 | -4.62852 | 34074 ft | 465 kts | 21° |
| 2026-04-27 10:02 | 37.70904 | -4.59701 | 34066 ft | 465 kts | 21° |
| 2026-04-27 10:02 | 37.76876 | -4.56535 | 34072 ft | 465 kts | 21° |
| 2026-04-27 10:03 | 37.82833 | -4.53373 | 34067 ft | 465 kts | 21° |
| 2026-04-27 10:03 | 37.88763 | -4.50222 | 34077 ft | 464 kts | 21° |
| 2026-04-27 10:04 | 37.94709 | -4.47063 | 34066 ft | 463 kts | 21° |
| 2026-04-27 10:04 | 38.00647 | -4.43901 | 34066 ft | 462 kts | 21° |
| 2026-04-27 10:05 | 38.06572 | -4.40740 | 34076 ft | 462 kts | 21° |
| 2026-04-27 10:05 | 38.12487 | -4.37577 | 34088 ft | 461 kts | 21° |
| 2026-04-27 10:06 | 38.18279 | -4.34462 | 34080 ft | 461 kts | 21° |
| 2026-04-27 10:06 | 38.23277 | -4.31766 | 34067 ft | 460 kts | 21° |
| 2026-04-27 10:07 | 38.29161 | -4.28587 | 34079 ft | 459 kts | 21° |
| 2026-04-27 10:07 | 38.35044 | -4.25405 | 34085 ft | 459 kts | 21° |
| 2026-04-27 10:08 | 38.40916 | -4.22224 | 34093 ft | 458 kts | 21° |
| 2026-04-27 10:08 | 38.46784 | -4.19038 | 34083 ft | 458 kts | 21° |
| 2026-04-27 10:09 | 38.52652 | -4.15848 | 34086 ft | 459 kts | 21° |
| 2026-04-27 10:09 | 38.58520 | -4.12651 | 34098 ft | 459 kts | 21° |
| 2026-04-27 10:10 | 38.64390 | -4.09447 | 34098 ft | 459 kts | 21° |
| 2026-04-27 10:10 | 38.70267 | -4.06234 | 34104 ft | 459 kts | 21° |
| 2026-04-27 10:11 | 38.76136 | -4.03021 | 34098 ft | 459 kts | 21° |
| 2026-04-27 10:11 | 38.82013 | -3.99800 | 34101 ft | 459 kts | 21° |
| 2026-04-27 10:12 | 38.87890 | -3.96573 | 34098 ft | 459 kts | 21° |
| 2026-04-27 10:12 | 38.93768 | -3.93338 | 34101 ft | 459 kts | 21° |
| 2026-04-27 10:13 | 38.99639 | -3.90101 | 34100 ft | 459 kts | 21° |
| 2026-04-27 10:13 | 39.05506 | -3.86869 | 34097 ft | 459 kts | 21° |
| 2026-04-27 10:14 | 39.11373 | -3.83634 | 34106 ft | 459 kts | 21° |
| 2026-04-27 10:14 | 39.17238 | -3.80394 | 34106 ft | 459 kts | 21° |
| 2026-04-27 10:15 | 39.23103 | -3.77146 | 34108 ft | 458 kts | 21° |
| 2026-04-27 10:15 | 39.28963 | -3.73895 | 34110 ft | 458 kts | 21° |
| 2026-04-27 10:16 | 39.34825 | -3.70638 | 34114 ft | 459 kts | 21° |
| 2026-04-27 10:16 | 39.40695 | -3.67369 | 34109 ft | 459 kts | 21° |
| 2026-04-27 10:17 | 39.46562 | -3.64096 | 34115 ft | 459 kts | 21° |
| 2026-04-27 10:17 | 39.52425 | -3.60819 | 34130 ft | 459 kts | 21° |
| 2026-04-27 10:18 | 39.58287 | -3.57538 | 34122 ft | 459 kts | 21° |
| 2026-04-27 10:18 | 39.64149 | -3.54251 | 34122 ft | 459 kts | 21° |
| 2026-04-27 10:19 | 39.70006 | -3.50960 | 34122 ft | 459 kts | 21° |
| 2026-04-27 10:19 | 39.75868 | -3.47660 | 34129 ft | 459 kts | 21° |
| 2026-04-27 10:20 | 39.81497 | -3.43740 | 34134 ft | 461 kts | 31° |
| 2026-04-27 10:20 | 39.86815 | -3.39062 | 34123 ft | 462 kts | 33° |
| 2026-04-27 10:21 | 39.92136 | -3.34364 | 34120 ft | 461 kts | 32° |
| 2026-04-27 10:21 | 39.97478 | -3.29724 | 34119 ft | 461 kts | 32° |
| 2026-04-27 10:22 | 40.02835 | -3.25097 | 34113 ft | 462 kts | 32° |
| 2026-04-27 10:22 | 40.08196 | -3.20459 | 34122 ft | 462 kts | 32° |
| 2026-04-27 10:23 | 40.13558 | -3.15808 | 34120 ft | 463 kts | 32° |
| 2026-04-27 10:23 | 40.18891 | -3.11171 | 34113 ft | 463 kts | 32° |
| 2026-04-27 10:24 | 40.24259 | -3.06496 | 34124 ft | 464 kts | 32° |
| 2026-04-27 10:24 | 40.29640 | -3.01805 | 34115 ft | 464 kts | 32° |
| 2026-04-27 10:25 | 40.35017 | -2.97114 | 34108 ft | 464 kts | 32° |
| 2026-04-27 10:25 | 40.40383 | -2.92424 | 34117 ft | 463 kts | 32° |
| 2026-04-27 10:26 | 40.45743 | -2.87727 | 34110 ft | 463 kts | 32° |
| 2026-04-27 10:26 | 40.51098 | -2.83027 | 34111 ft | 463 kts | 32° |
| 2026-04-27 10:27 | 40.56442 | -2.78326 | 34101 ft | 462 kts | 32° |
| 2026-04-27 10:27 | 40.61782 | -2.73619 | 34108 ft | 461 kts | 32° |
| 2026-04-27 10:28 | 40.67109 | -2.68914 | 34109 ft | 461 kts | 32° |
| 2026-04-27 10:28 | 40.72395 | -2.64238 | 34114 ft | 460 kts | 32° |
| 2026-04-27 10:29 | 40.77747 | -2.59493 | 34103 ft | 460 kts | 33° |
| 2026-04-27 10:29 | 40.83016 | -2.54812 | 34109 ft | 459 kts | 33° |
| 2026-04-27 10:30 | 40.88320 | -2.50091 | 34126 ft | 459 kts | 33° |
| 2026-04-27 10:30 | 40.93614 | -2.45369 | 34119 ft | 459 kts | 33° |
| 2026-04-27 10:31 | 40.98909 | -2.40638 | 34123 ft | 459 kts | 33° |
| 2026-04-27 10:31 | 41.04156 | -2.35789 | 34116 ft | 460 kts | 36° |
| 2026-04-27 10:32 | 41.09169 | -2.30505 | 34122 ft | 461 kts | 38° |
| 2026-04-27 10:32 | 41.14136 | -2.25124 | 34127 ft | 461 kts | 38° |
| 2026-04-27 10:33 | 41.19116 | -2.19772 | 34125 ft | 461 kts | 38° |
| 2026-04-27 10:33 | 41.24078 | -2.14474 | 34121 ft | 460 kts | 38° |
| 2026-04-27 10:34 | 41.29073 | -2.09143 | 34130 ft | 460 kts | 38° |
| 2026-04-27 10:34 | 41.34058 | -2.03812 | 34126 ft | 460 kts | 38° |
| 2026-04-27 10:35 | 41.39049 | -1.98463 | 34129 ft | 460 kts | 38° |
| 2026-04-27 10:35 | 41.44036 | -1.93106 | 34129 ft | 460 kts | 38° |
| 2026-04-27 10:36 | 41.49016 | -1.87744 | 34133 ft | 460 kts | 38° |
| 2026-04-27 10:36 | 41.53991 | -1.82378 | 34133 ft | 460 kts | 38° |
| 2026-04-27 10:37 | 41.58959 | -1.77008 | 34131 ft | 459 kts | 38° |
| 2026-04-27 10:37 | 41.63918 | -1.71637 | 34133 ft | 459 kts | 38° |
| 2026-04-27 10:38 | 41.68873 | -1.66260 | 34132 ft | 459 kts | 38° |
| 2026-04-27 10:38 | 41.73824 | -1.60875 | 34134 ft | 458 kts | 38° |
| 2026-04-27 10:39 | 41.78738 | -1.55521 | 34136 ft | 459 kts | 38° |
| 2026-04-27 10:39 | 41.83686 | -1.50118 | 34140 ft | 458 kts | 38° |
| 2026-04-27 10:40 | 41.88627 | -1.44711 | 34134 ft | 458 kts | 39° |
| 2026-04-27 10:40 | 41.93562 | -1.39300 | 34131 ft | 458 kts | 39° |
| 2026-04-27 10:41 | 41.98493 | -1.33881 | 34134 ft | 458 kts | 39° |
| 2026-04-27 10:41 | 42.03421 | -1.28454 | 34128 ft | 458 kts | 39° |
| 2026-04-27 10:42 | 42.08343 | -1.23024 | 34131 ft | 457 kts | 39° |
| 2026-04-27 10:42 | 42.13262 | -1.17582 | 34134 ft | 458 kts | 39° |
| 2026-04-27 10:43 | 42.18178 | -1.12125 | 34135 ft | 457 kts | 39° |
| 2026-04-27 10:43 | 42.23090 | -1.06660 | 34129 ft | 458 kts | 39° |
| 2026-04-27 10:44 | 42.28003 | -1.01182 | 34136 ft | 458 kts | 39° |
| 2026-04-27 10:44 | 42.32924 | -0.95684 | 34134 ft | 459 kts | 39° |
| 2026-04-27 10:45 | 42.37807 | -0.90217 | 34144 ft | 459 kts | 39° |
| 2026-04-27 10:45 | 42.42695 | -0.84644 | 34140 ft | 460 kts | 44° |
| 2026-04-27 10:46 | 42.46776 | -0.77998 | 34143 ft | 460 kts | 52° |
| 2026-04-27 10:46 | 42.50631 | -0.71054 | 34153 ft | 461 kts | 53° |
| 2026-04-27 10:47 | 42.54505 | -0.64136 | 34156 ft | 461 kts | 52° |
| 2026-04-27 10:47 | 42.58408 | -0.57235 | 34160 ft | 461 kts | 52° |
| 2026-04-27 10:48 | 42.62319 | -0.50328 | 34175 ft | 461 kts | 52° |
| 2026-04-27 10:48 | 42.66227 | -0.43406 | 34173 ft | 462 kts | 52° |
| 2026-04-27 10:49 | 42.70134 | -0.36466 | 34173 ft | 462 kts | 52° |
| 2026-04-27 10:49 | 42.74034 | -0.29521 | 34175 ft | 462 kts | 52° |
| 2026-04-27 10:50 | 42.77931 | -0.22567 | 34169 ft | 462 kts | 52° |
| 2026-04-27 10:50 | 42.81869 | -0.15642 | 34166 ft | 462 kts | 51° |
| 2026-04-27 10:51 | 42.85955 | -0.08882 | 34171 ft | 462 kts | 50° |
| 2026-04-27 10:51 | 42.90057 | -0.02142 | 34173 ft | 462 kts | 50° |
| 2026-04-27 10:52 | 42.94134 | 0.04628 | 34174 ft | 462 kts | 50° |
| 2026-04-27 10:52 | 42.98200 | 0.11429 | 34177 ft | 462 kts | 51° |
| 2026-04-27 10:53 | 43.03574 | 0.20452 | 34167 ft | 462 kts | 51° |
| 2026-04-27 10:54 | 43.07639 | 0.27296 | 34169 ft | 462 kts | 51° |
| 2026-04-27 10:54 | 43.11688 | 0.34127 | 34159 ft | 462 kts | 51° |
| 2026-04-27 10:55 | 43.15734 | 0.40969 | 34170 ft | 462 kts | 51° |
| 2026-04-27 10:55 | 43.19775 | 0.47819 | 34149 ft | 462 kts | 51° |
| 2026-04-27 10:56 | 43.23813 | 0.54679 | 34150 ft | 462 kts | 51° |
| 2026-04-27 10:56 | 43.27843 | 0.61542 | 34141 ft | 462 kts | 51° |
| 2026-04-27 10:57 | 43.31867 | 0.68410 | 34148 ft | 462 kts | 51° |
| 2026-04-27 10:57 | 43.35890 | 0.75293 | 34154 ft | 462 kts | 51° |
| 2026-04-27 10:58 | 43.39876 | 0.82128 | 34141 ft | 461 kts | 51° |
| 2026-04-27 10:58 | 43.43882 | 0.89015 | 34144 ft | 461 kts | 51° |
| 2026-04-27 10:59 | 43.47887 | 0.95916 | 34140 ft | 461 kts | 51° |
| 2026-04-27 10:59 | 43.51883 | 1.02816 | 34136 ft | 461 kts | 51° |
| 2026-04-27 11:00 | 43.57875 | 1.13197 | 34138 ft | 461 kts | 51° |
| 2026-04-27 11:00 | 43.61866 | 1.20132 | 34156 ft | 461 kts | 51° |
| 2026-04-27 11:01 | 43.65850 | 1.27070 | 34152 ft | 461 kts | 51° |
| 2026-04-27 11:01 | 43.69800 | 1.34046 | 34168 ft | 461 kts | 52° |
| 2026-04-27 11:02 | 43.73609 | 1.41192 | 34161 ft | 461 kts | 53° |
| 2026-04-27 11:02 | 43.77390 | 1.48362 | 34156 ft | 461 kts | 53° |
| 2026-04-27 11:03 | 43.81186 | 1.55523 | 34148 ft | 461 kts | 53° |
| 2026-04-27 11:03 | 43.84984 | 1.62680 | 34140 ft | 461 kts | 53° |
| 2026-04-27 11:04 | 43.88756 | 1.69803 | 34144 ft | 461 kts | 53° |
| 2026-04-27 11:04 | 43.92542 | 1.76972 | 34136 ft | 461 kts | 53° |
| 2026-04-27 11:05 | 43.96318 | 1.84160 | 34150 ft | 460 kts | 53° |
| 2026-04-27 11:05 | 43.99978 | 1.91453 | 34145 ft | 460 kts | 54° |
| 2026-04-27 11:06 | 44.03600 | 1.98793 | 34153 ft | 460 kts | 54° |
| 2026-04-27 11:06 | 44.07227 | 2.06131 | 34148 ft | 460 kts | 54° |
| 2026-04-27 11:07 | 44.10852 | 2.13455 | 34166 ft | 460 kts | 54° |
| 2026-04-27 11:07 | 44.14454 | 2.20742 | 34152 ft | 460 kts | 54° |
| 2026-04-27 11:08 | 44.18078 | 2.28091 | 34153 ft | 460 kts | 54° |
| 2026-04-27 11:08 | 44.21691 | 2.35441 | 34162 ft | 460 kts | 54° |
| 2026-04-27 11:09 | 44.25303 | 2.42804 | 34157 ft | 460 kts | 54° |
| 2026-04-27 11:09 | 44.28906 | 2.50169 | 34157 ft | 459 kts | 54° |
| 2026-04-27 11:10 | 44.32501 | 2.57537 | 34160 ft | 459 kts | 54° |
| 2026-04-27 11:10 | 44.36089 | 2.64907 | 34158 ft | 458 kts | 54° |
| 2026-04-27 11:11 | 44.39665 | 2.72274 | 34167 ft | 458 kts | 54° |
| 2026-04-27 11:11 | 44.43237 | 2.79649 | 34157 ft | 458 kts | 54° |
| 2026-04-27 11:12 | 44.46799 | 2.87025 | 34153 ft | 457 kts | 54° |
| 2026-04-27 11:12 | 44.50285 | 2.94265 | 34128 ft | 434 kts | 54° |
| 2026-04-27 11:13 | 44.51944 | 2.97718 | 34114 ft | 420 kts | 54° |
| 2026-04-27 11:13 | 44.53548 | 3.01058 | 34134 ft | 407 kts | 54° |
| 2026-04-27 11:13 | 44.55102 | 3.04298 | 34118 ft | 394 kts | 54° |
| 2026-04-27 11:13 | 44.56605 | 3.07434 | 34131 ft | 380 kts | 53° |
| 2026-04-27 11:14 | 44.59499 | 3.13473 | 34064 ft | 379 kts | 53° |
| 2026-04-27 11:14 | 44.60992 | 3.16620 | 33582 ft | 385 kts | 56° |
| 2026-04-27 11:14 | 44.62368 | 3.19830 | 32774 ft | 394 kts | 58° |
| 2026-04-27 11:15 | 44.63743 | 3.23247 | 31617 ft | 412 kts | 59° |
| 2026-04-27 11:15 | 44.65174 | 3.26873 | 30196 ft | 437 kts | 60° |
| 2026-04-27 11:15 | 44.66668 | 3.30662 | 29179 ft | 446 kts | 60° |
| 2026-04-27 11:15 | 44.68168 | 3.34447 | 28693 ft | 441 kts | 60° |
| 2026-04-27 11:16 | 44.69655 | 3.38179 | 28314 ft | 434 kts | 60° |
| 2026-04-27 11:16 | 44.71127 | 3.41859 | 27848 ft | 429 kts | 59° |
| 2026-04-27 11:16 | 44.72587 | 3.45503 | 27312 ft | 427 kts | 60° |
| 2026-04-27 11:16 | 44.74042 | 3.49138 | 26790 ft | 425 kts | 60° |
| 2026-04-27 11:17 | 44.75486 | 3.52749 | 26305 ft | 422 kts | 60° |
| 2026-04-27 11:17 | 44.76915 | 3.56331 | 25837 ft | 419 kts | 60° |
| 2026-04-27 11:17 | 44.78330 | 3.59893 | 25379 ft | 416 kts | 60° |
| 2026-04-27 11:17 | 44.79733 | 3.63441 | 24919 ft | 413 kts | 60° |
| 2026-04-27 11:18 | 44.81123 | 3.66962 | 24456 ft | 410 kts | 60° |
| 2026-04-27 11:18 | 44.82505 | 3.70469 | 24013 ft | 408 kts | 60° |
| 2026-04-27 11:18 | 44.83874 | 3.73945 | 23550 ft | 406 kts | 60° |
| 2026-04-27 11:18 | 44.85240 | 3.77420 | 23060 ft | 403 kts | 61° |
| 2026-04-27 11:19 | 44.86591 | 3.80858 | 22595 ft | 400 kts | 60° |
| 2026-04-27 11:19 | 44.87932 | 3.84274 | 22201 ft | 395 kts | 60° |
| 2026-04-27 11:19 | 44.89252 | 3.87642 | 21763 ft | 391 kts | 60° |
| 2026-04-27 11:19 | 44.90565 | 3.90996 | 21270 ft | 390 kts | 61° |
| 2026-04-27 11:20 | 44.91874 | 3.94341 | 20813 ft | 388 kts | 61° |
| 2026-04-27 11:20 | 44.93174 | 3.97670 | 20382 ft | 386 kts | 61° |
| 2026-04-27 11:20 | 44.94462 | 4.00970 | 19957 ft | 383 kts | 61° |
| 2026-04-27 11:20 | 44.95744 | 4.04261 | 19532 ft | 381 kts | 61° |
| 2026-04-27 11:21 | 44.97015 | 4.07527 | 19126 ft | 379 kts | 62° |
| 2026-04-27 11:21 | 44.98279 | 4.10777 | 18728 ft | 376 kts | 62° |
| 2026-04-27 11:21 | 44.99535 | 4.14010 | 18301 ft | 374 kts | 62° |
| 2026-04-27 11:21 | 45.00782 | 4.17225 | 17854 ft | 372 kts | 62° |
| 2026-04-27 11:22 | 45.01991 | 4.20440 | 17403 ft | 369 kts | 66° |
| 2026-04-27 11:22 | 45.02939 | 4.23795 | 16975 ft | 366 kts | 71° |
| 2026-04-27 11:22 | 45.03739 | 4.27146 | 16567 ft | 363 kts | 72° |
| 2026-04-27 11:22 | 45.04514 | 4.30537 | 16143 ft | 361 kts | 72° |
| 2026-04-27 11:23 | 45.05289 | 4.33901 | 15723 ft | 359 kts | 72° |
| 2026-04-27 11:23 | 45.06073 | 4.37240 | 15311 ft | 357 kts | 72° |
| 2026-04-27 11:23 | 45.06864 | 4.40558 | 14931 ft | 355 kts | 72° |
| 2026-04-27 11:23 | 45.07656 | 4.43844 | 14534 ft | 352 kts | 71° |
| 2026-04-27 11:24 | 45.08449 | 4.47113 | 14169 ft | 350 kts | 71° |
| 2026-04-27 11:24 | 45.09239 | 4.50364 | 13744 ft | 349 kts | 71° |
| 2026-04-27 11:24 | 45.10025 | 4.53603 | 13319 ft | 346 kts | 71° |
| 2026-04-27 11:24 | 45.10806 | 4.56817 | 12898 ft | 344 kts | 71° |
| 2026-04-27 11:25 | 45.11580 | 4.60011 | 12467 ft | 343 kts | 71° |
| 2026-04-27 11:25 | 45.12351 | 4.63192 | 12077 ft | 340 kts | 72° |
| 2026-04-27 11:25 | 45.13116 | 4.66356 | 11663 ft | 338 kts | 72° |
| 2026-04-27 11:25 | 45.13867 | 4.69468 | 11530 ft | 328 kts | 71° |
| 2026-04-27 11:26 | 45.14592 | 4.72472 | 11444 ft | 317 kts | 72° |
| 2026-04-27 11:26 | 45.15289 | 4.75364 | 11320 ft | 303 kts | 72° |
| 2026-04-27 11:26 | 45.15958 | 4.78141 | 11114 ft | 294 kts | 72° |
| 2026-04-27 11:26 | 45.16608 | 4.80846 | 10792 ft | 289 kts | 71° |
| 2026-04-27 11:27 | 45.17497 | 4.83374 | 10406 ft | 288 kts | 49° |
| 2026-04-27 11:27 | 45.18806 | 4.84856 | 10073 ft | 287 kts | 27° |
| 2026-04-27 11:27 | 45.20672 | 4.85814 | 9682 ft | 284 kts | 16° |
| 2026-04-27 11:27 | 45.22569 | 4.86595 | 9254 ft | 284 kts | 15° |
| 2026-04-27 11:28 | 45.24417 | 4.87361 | 8945 ft | 279 kts | 16° |
| 2026-04-27 11:28 | 45.26269 | 4.88146 | 8556 ft | 277 kts | 16° |
| 2026-04-27 11:28 | 45.28106 | 4.88936 | 8187 ft | 276 kts | 17° |
| 2026-04-27 11:28 | 45.29826 | 4.90146 | 7781 ft | 276 kts | 31° |
| 2026-04-27 11:29 | 45.31431 | 4.91613 | 7445 ft | 273 kts | 32° |
| 2026-04-27 11:29 | 45.33016 | 4.93096 | 7087 ft | 272 kts | 32° |
| 2026-04-27 11:29 | 45.34594 | 4.94562 | 6776 ft | 269 kts | 31° |
| 2026-04-27 11:29 | 45.36167 | 4.96012 | 6363 ft | 270 kts | 31° |
| 2026-04-27 11:30 | 45.37735 | 4.97445 | 6060 ft | 267 kts | 31° |
| 2026-04-27 11:30 | 45.39291 | 4.98856 | 5759 ft | 263 kts | 31° |
| 2026-04-27 11:30 | 45.40817 | 5.00239 | 5496 ft | 257 kts | 31° |
| 2026-04-27 11:30 | 45.42298 | 5.01582 | 5341 ft | 245 kts | 30° |
| 2026-04-27 11:31 | 45.43683 | 5.02832 | 5241 ft | 227 kts | 31° |
| 2026-04-27 11:31 | 45.44968 | 5.03989 | 5142 ft | 210 kts | 30° |
| 2026-04-27 11:31 | 45.46164 | 5.05045 | 5020 ft | 195 kts | 32° |
| 2026-04-27 11:31 | 45.47266 | 5.06056 | 4827 ft | 189 kts | 32° |
| 2026-04-27 11:32 | 45.48350 | 5.07044 | 4717 ft | 179 kts | 32° |
| 2026-04-27 11:32 | 45.49385 | 5.07984 | 4635 ft | 180 kts | 31° |
| 2026-04-27 11:32 | 45.50466 | 5.08960 | 4536 ft | 187 kts | 31° |
| 2026-04-27 11:32 | 45.51577 | 5.09968 | 4316 ft | 189 kts | 31° |
| 2026-04-27 11:33 | 45.52697 | 5.10921 | 4106 ft | 187 kts | 18° |
| 2026-04-27 11:33 | 45.53955 | 5.11027 | 4005 ft | 180 kts | 356° |
| 2026-04-27 11:33 | 45.55212 | 5.10971 | 3748 ft | 177 kts | 355° |
| 2026-04-27 11:33 | 45.56432 | 5.10818 | 3568 ft | 176 kts | 352° |
| 2026-04-27 11:34 | 45.57652 | 5.10656 | 3375 ft | 176 kts | 354° |
| 2026-04-27 11:34 | 45.58850 | 5.10516 | 3212 ft | 168 kts | 354° |
| 2026-04-27 11:34 | 45.59998 | 5.10354 | 3045 ft | 164 kts | 353° |
| 2026-04-27 11:34 | 45.61106 | 5.10235 | 2797 ft | 158 kts | 355° |
| 2026-04-27 11:35 | 45.62186 | 5.10111 | 2607 ft | 155 kts | 355° |
| 2026-04-27 11:35 | 45.63255 | 5.09981 | 2378 ft | 160 kts | 356° |
| 2026-04-27 11:35 | 45.64354 | 5.09848 | 2171 ft | 162 kts | 355° |
| 2026-04-27 11:35 | 45.65468 | 5.09712 | 1969 ft | 159 kts | 355° |
| 2026-04-27 11:36 | 45.66578 | 5.09582 | 1750 ft | 159 kts | 354° |
| 2026-04-27 11:36 | 45.67676 | 5.09468 | 1488 ft | 156 kts | 354° |
| 2026-04-27 11:36 | 45.68741 | 5.09315 | 1271 ft | 153 kts | 354° |
| 2026-04-27 11:36 | 45.69798 | 5.09176 | 1020 ft | 152 kts | 355° |
| 2026-04-27 11:37 | 45.70829 | 5.09056 | 833 ft | 146 kts | 355° |
| 2026-04-27 11:37 | 45.71757 | 5.08944 | 799 ft | 119 kts | 356° |
| 2026-04-27 11:37 | 45.72423 | 5.08866 | 788 ft | 77 kts | 355° |
| 2026-04-27 11:37 | 45.72767 | 5.08823 | 784 ft | 20 kts | 356° |
| 2026-04-27 11:38 | 45.72899 | 5.08799 | 785 ft | 16 kts | 333° |
| 2026-04-27 11:38 | 45.72947 | 5.08665 | 784 ft | 16 kts | 268° |
| 2026-04-27 11:38 | 45.72946 | 5.08648 | 784 ft | 0 kts | 266° |
| 2026-04-27 11:39 | 45.72946 | 5.08647 | 784 ft | 1 kts | 266° |
| 2026-04-27 11:40 | 45.72945 | 5.08629 | 783 ft | 4 kts | 266° |
| 2026-04-27 11:40 | 45.72942 | 5.08565 | 783 ft | 9 kts | 265° |
| 2026-04-27 11:40 | 45.72936 | 5.08459 | 782 ft | 12 kts | 265° |
| 2026-04-27 11:40 | 45.72882 | 5.08366 | 782 ft | 13 kts | 202° |
| 2026-04-27 11:41 | 45.72794 | 5.08358 | 783 ft | 13 kts | 175° |
| 2026-04-27 11:41 | 45.72707 | 5.08368 | 784 ft | 12 kts | 175° |
| 2026-04-27 11:41 | 45.72623 | 5.08378 | 785 ft | 12 kts | 175° |
| 2026-04-27 11:41 | 45.72568 | 5.08385 | 786 ft | 12 kts | 175° |
| 2026-04-27 11:42 | 45.72487 | 5.08395 | 787 ft | 12 kts | 175° |
| 2026-04-27 11:42 | 45.72407 | 5.08404 | 788 ft | 11 kts | 175° |
| 2026-04-27 11:42 | 45.72330 | 5.08413 | 789 ft | 11 kts | 175° |
| 2026-04-27 11:42 | 45.72282 | 5.08405 | 789 ft | 6 kts | 210° |
| 2026-04-27 11:43 | 45.72258 | 5.08348 | 789 ft | 7 kts | 247° |
| 2026-04-27 11:43 | 45.72232 | 5.08278 | 790 ft | 8 kts | 243° |
| 2026-04-27 11:43 | 45.72223 | 5.08207 | 790 ft | 4 kts | 269° |
| 2026-04-27 11:43 | 45.72223 | 5.08186 | 789 ft | 0 kts | 271° |
| 2026-04-27 11:44 | 45.72223 | 5.08181 | 789 ft | 0 kts | 271° |